createdAt,value
2022-09-28T00:01:49.643Z,8.91
2022-09-28T00:04:19.504Z,8.80
2022-09-28T00:06:49.012Z,8.74
2022-09-28T00:09:18.125Z,8.75
2022-09-28T00:11:47.046Z,8.77
2022-09-28T00:14:15.687Z,8.79
2022-09-28T00:16:45.358Z,8.71
2022-09-28T00:19:14.377Z,8.70
2022-09-28T00:21:43.983Z,8.65
2022-09-28T00:24:16.180Z,8.69
2022-09-28T00:26:47.422Z,8.72
2022-09-28T00:29:22.865Z,8.59
2022-09-28T00:31:53.607Z,8.52
2022-09-28T00:34:22.086Z,8.38
2022-09-28T00:36:51.499Z,8.34
2022-09-28T00:39:19.842Z,8.29
2022-09-28T00:41:48.510Z,8.36
2022-09-28T00:44:42.923Z,8.58
2022-09-28T00:47:31.332Z,8.71
2022-09-28T00:50:03.816Z,8.80
2022-09-28T00:52:36.526Z,8.95
2022-09-28T00:55:09.374Z,9.07
2022-09-28T00:57:39.087Z,9.21
2022-09-28T01:00:09.580Z,9.23
2022-09-28T01:02:37.840Z,9.21
2022-09-28T01:05:08.377Z,9.22
2022-09-28T01:07:38.739Z,9.21
2022-09-28T01:10:08.598Z,9.27
2022-09-28T01:12:36.649Z,9.23
2022-09-28T01:15:06.365Z,9.23
2022-09-28T01:17:44.557Z,9.18
2022-09-28T01:20:47.403Z,9.20
2022-09-28T01:23:40.825Z,9.16
2022-09-28T01:26:36.127Z,9.16
2022-09-28T01:29:14.228Z,9.20
2022-09-28T01:31:47.605Z,9.18
2022-09-28T01:34:20.023Z,9.24
2022-09-28T01:36:50.744Z,9.31
2022-09-28T01:39:25.529Z,9.31
2022-09-28T01:41:57.907Z,9.31
2022-09-28T01:44:29.240Z,9.31
2022-09-28T01:47:04.331Z,9.34
2022-09-28T01:49:38.450Z,9.33
2022-09-28T01:52:15.138Z,9.33
2022-09-28T01:54:46.666Z,9.29
2022-09-28T01:57:22.411Z,9.25
2022-09-28T01:59:57.369Z,9.23
2022-09-28T02:02:29.665Z,9.22
2022-09-28T02:05:03.961Z,9.23
2022-09-28T02:07:38.223Z,9.26
2022-09-28T02:10:11.603Z,9.25
2022-09-28T02:12:45.854Z,9.30
2022-09-28T02:15:19.660Z,9.31
2022-09-28T02:17:47.938Z,9.30
2022-09-28T02:20:17.088Z,9.31
2022-09-28T02:22:49.727Z,9.35
2022-09-28T02:25:24.324Z,9.35
2022-09-28T02:27:59.722Z,9.37
2022-09-28T02:30:28.141Z,9.30
2022-09-28T02:33:00.390Z,9.32
2022-09-28T02:35:28.697Z,9.35
2022-09-28T02:37:57.488Z,9.33
2022-09-28T02:40:31.634Z,9.38
2022-09-28T02:43:11.835Z,9.41
2022-09-28T02:45:51.723Z,9.38
2022-09-28T02:48:43.666Z,9.39
2022-09-28T02:51:24.045Z,9.34
2022-09-28T02:54:21.705Z,9.31
2022-09-28T02:57:05.108Z,9.30
2022-09-28T02:59:46.060Z,9.31
2022-09-28T03:02:25.766Z,9.27
2022-09-28T03:05:05.256Z,9.36
2022-09-28T03:07:38.118Z,9.38
2022-09-28T03:10:11.197Z,9.42
2022-09-28T03:12:40.768Z,9.45
2022-09-28T03:15:14.108Z,9.39
2022-09-28T03:17:42.133Z,9.40
2022-09-28T03:20:12.773Z,9.36
2022-09-28T03:22:40.807Z,9.28
2022-09-28T03:25:10.261Z,9.17
2022-09-28T03:27:38.899Z,9.11
2022-09-28T03:30:07.912Z,9.03
2022-09-28T03:32:37.602Z,9.11
2022-09-28T03:35:08.704Z,9.23
2022-09-28T03:37:36.853Z,9.22
2022-09-28T03:40:05.715Z,9.21
2022-09-28T03:42:36.396Z,9.12
2022-09-28T03:45:04.716Z,9.06
2022-09-28T03:47:32.783Z,8.97
2022-09-28T03:50:02.434Z,8.89
2022-09-28T03:52:30.619Z,8.85
2022-09-28T03:54:58.633Z,8.80
2022-09-28T03:57:26.659Z,8.76
2022-09-28T03:59:54.698Z,8.73
2022-09-28T04:02:22.822Z,8.69
2022-09-28T04:04:50.927Z,8.65
2022-09-28T04:07:20.333Z,8.61
2022-09-28T04:09:48.377Z,8.57
2022-09-28T04:12:16.610Z,8.53
2022-09-28T04:14:44.720Z,8.48
2022-09-28T04:17:12.869Z,8.42
2022-09-28T04:19:40.950Z,8.38
2022-09-28T04:22:09.068Z,8.37
2022-09-28T04:24:38.496Z,8.34
2022-09-28T04:27:20.363Z,8.31
2022-09-28T04:29:48.431Z,8.30
2022-09-28T04:32:16.462Z,8.31
2022-09-28T04:34:44.666Z,8.26
2022-09-28T04:37:12.951Z,8.21
2022-09-28T04:39:47.469Z,8.16
2022-09-28T04:42:16.457Z,8.10
2022-09-28T04:44:44.478Z,8.09
2022-09-28T04:47:12.532Z,8.05
2022-09-28T04:49:46.169Z,8.07
2022-09-28T04:52:18.285Z,8.12
2022-09-28T04:54:48.007Z,8.16
2022-09-28T04:57:16.075Z,8.20
2022-09-28T04:59:44.155Z,8.21
2022-09-28T05:02:15.188Z,8.25
2022-09-28T05:04:43.399Z,8.26
2022-09-28T05:07:11.439Z,8.29
2022-09-28T05:09:39.487Z,8.39
2022-09-28T05:12:10.613Z,8.43
2022-09-28T05:14:38.874Z,8.44
2022-09-28T05:17:07.109Z,8.35
2022-09-28T05:19:35.702Z,8.23
2022-09-28T05:22:04.951Z,8.18
2022-09-28T05:24:33.127Z,8.10
2022-09-28T05:27:01.130Z,7.97
2022-09-28T05:29:32.413Z,7.93
2022-09-28T05:32:01.762Z,7.98
2022-09-28T05:34:29.909Z,8.13
2022-09-28T05:36:58.114Z,8.25
2022-09-28T05:39:26.185Z,8.45
2022-09-28T05:41:54.217Z,8.64
2022-09-28T05:44:22.343Z,8.78
2022-09-28T05:46:51.833Z,9.05
2022-09-28T05:49:19.835Z,9.10
2022-09-28T05:51:47.863Z,9.25
2022-09-28T05:54:15.909Z,9.40
2022-09-28T05:56:44.001Z,9.83
2022-09-28T05:59:12.295Z,10.11
2022-09-28T06:01:40.420Z,10.47
2022-09-28T06:04:10.154Z,10.70
2022-09-28T06:06:39.041Z,10.93
2022-09-28T06:09:07.166Z,10.90
2022-09-28T06:11:35.320Z,11.15
2022-09-28T06:14:03.338Z,10.67
2022-09-28T06:16:31.433Z,10.88
2022-09-28T06:18:59.520Z,11.19
2022-09-28T06:21:28.931Z,11.54
2022-09-28T06:23:56.963Z,11.75
2022-09-28T06:26:25.088Z,11.95
2022-09-28T06:28:53.064Z,12.21
2022-09-28T06:31:23.888Z,12.36
2022-09-28T06:33:52.789Z,12.49
2022-09-28T06:36:21.018Z,12.54
2022-09-28T06:38:50.438Z,12.62
2022-09-28T06:41:18.529Z,12.75
2022-09-28T06:43:46.579Z,12.94
2022-09-28T06:46:15.342Z,13.06
2022-09-28T06:48:45.144Z,13.15
2022-09-28T06:51:13.241Z,13.22
2022-09-28T06:53:41.290Z,13.52
2022-09-28T06:56:12.032Z,13.43
2022-09-28T06:58:40.052Z,13.60
2022-09-28T07:01:08.196Z,13.44
2022-09-28T07:03:36.303Z,13.46
2022-09-28T07:06:05.023Z,13.60
2022-09-28T07:08:33.047Z,13.69
2022-09-28T07:11:01.522Z,13.87
2022-09-28T07:13:50.896Z,14.14
2022-09-28T07:16:22.724Z,14.21
2022-09-28T07:18:53.871Z,14.46
2022-09-28T07:21:28.583Z,14.58
2022-09-28T07:23:58.159Z,14.68
2022-09-28T07:26:26.915Z,14.70
2022-09-28T07:28:56.456Z,14.73
2022-09-28T07:31:26.400Z,14.86
2022-09-28T07:33:56.211Z,14.95
2022-09-28T07:36:24.336Z,15.03
2022-09-28T07:38:52.365Z,15.12
2022-09-28T07:41:32.253Z,15.02
2022-09-28T07:44:06.314Z,15.01
2022-09-28T07:46:34.703Z,14.92
2022-09-28T07:49:08.401Z,14.86
2022-09-28T07:51:39.579Z,14.91
2022-09-28T07:54:07.663Z,14.91
2022-09-28T07:56:35.674Z,15.12
2022-09-28T07:59:05.148Z,15.15
2022-09-28T08:01:33.199Z,15.33
2022-09-28T08:04:01.331Z,15.05
2022-09-28T08:06:31.663Z,15.19
2022-09-28T08:09:01.892Z,15.32
2022-09-28T08:11:29.922Z,15.36
2022-09-28T08:14:00.268Z,15.65
2022-09-28T08:16:30.376Z,15.70
2022-09-28T08:18:58.489Z,15.67
2022-09-28T08:21:43.903Z,15.77
2022-09-28T08:24:12.552Z,15.72
2022-09-28T08:26:40.591Z,15.83
2022-09-28T08:29:08.674Z,15.88
2022-09-28T08:31:38.105Z,15.82
2022-09-28T08:34:06.500Z,15.73
2022-09-28T08:36:34.572Z,15.65
2022-09-28T08:39:02.679Z,15.78
2022-09-28T08:41:40.442Z,15.84
2022-09-28T08:44:17.059Z,15.74
2022-09-28T08:46:50.907Z,15.84
2022-09-28T08:49:26.771Z,15.93
2022-09-28T08:51:59.216Z,15.94
2022-09-28T08:54:34.946Z,15.89
2022-09-28T08:57:06.753Z,15.94
2022-09-28T08:59:46.862Z,16.07
2022-09-28T09:02:21.065Z,16.15
2022-09-28T09:04:50.058Z,16.06
2022-09-28T09:07:45.076Z,16.24
2022-09-28T09:10:31.897Z,16.27
2022-09-28T09:13:07.160Z,16.37
2022-09-28T09:15:46.632Z,16.50
2022-09-28T09:18:29.134Z,16.43
2022-09-28T09:20:58.732Z,16.63
2022-09-28T09:23:37.403Z,16.67
2022-09-28T09:26:17.169Z,16.75
2022-09-28T09:29:25.922Z,16.93
2022-09-28T09:32:10.692Z,16.95
2022-09-28T09:35:00.838Z,17.20
2022-09-28T09:37:47.632Z,16.85
2022-09-28T09:40:37.364Z,17.02
2022-09-28T09:43:32.312Z,17.28
2022-09-28T09:46:12.646Z,16.98
2022-09-28T09:48:48.162Z,16.75
2022-09-28T09:51:26.170Z,16.71
2022-09-28T09:54:00.696Z,16.69
2022-09-28T09:56:36.351Z,17.22
2022-09-28T09:59:09.196Z,17.61
2022-09-28T10:01:39.948Z,17.83
2022-09-28T10:04:17.281Z,18.00
2022-09-28T10:06:47.989Z,17.95
2022-09-28T10:09:23.823Z,17.53
2022-09-28T10:11:52.516Z,17.33
2022-09-28T10:14:22.620Z,17.21
2022-09-28T10:16:52.455Z,17.16
2022-09-28T10:19:33.703Z,17.11
2022-09-28T10:22:06.986Z,17.35
2022-09-28T10:24:37.812Z,17.40
2022-09-28T10:27:12.310Z,17.57
2022-09-28T10:29:47.340Z,17.59
2022-09-28T10:32:24.432Z,17.97
2022-09-28T10:34:55.119Z,18.05
2022-09-28T10:37:24.597Z,18.12
2022-09-28T10:39:54.505Z,17.92
2022-09-28T10:42:26.923Z,17.93
2022-09-28T10:44:58.061Z,17.85
2022-09-28T10:47:29.310Z,17.94
2022-09-28T10:49:57.766Z,18.14
2022-09-28T10:52:41.696Z,17.84
2022-09-28T10:55:32.313Z,17.68
2022-09-28T10:58:01.048Z,17.34
2022-09-28T11:00:34.965Z,17.15
2022-09-28T11:03:03.703Z,17.03
2022-09-28T11:05:32.588Z,17.07
2022-09-28T11:08:06.186Z,17.02
2022-09-28T11:10:35.044Z,17.36
2022-09-28T11:13:03.237Z,17.71
2022-09-28T11:15:34.253Z,17.80
2022-09-28T11:18:21.501Z,17.97
2022-09-28T11:20:49.848Z,18.27
2022-09-28T11:23:31.878Z,18.67
2022-09-28T11:26:03.316Z,18.59
2022-09-28T11:28:33.770Z,18.43
2022-09-28T11:31:03.634Z,18.42
2022-09-28T11:33:34.573Z,18.18
2022-09-28T11:36:20.380Z,17.89
2022-09-28T11:38:58.301Z,18.52
2022-09-28T11:41:48.872Z,18.70
2022-09-28T11:44:33.209Z,19.04
2022-09-28T11:47:23.146Z,19.21
2022-09-28T11:49:56.324Z,19.29
2022-09-28T11:52:28.771Z,19.40
2022-09-28T11:55:00.844Z,19.31
2022-09-28T11:57:35.706Z,19.33
2022-09-28T12:00:08.348Z,19.19
2022-09-28T12:02:41.579Z,19.09
2022-09-28T12:05:20.939Z,19.02
2022-09-28T12:07:54.622Z,18.98
2022-09-28T12:10:33.681Z,18.95
2022-09-28T12:13:05.271Z,18.83
2022-09-28T12:16:11.526Z,18.73
2022-09-28T12:18:39.009Z,18.82
2022-09-28T12:21:20.055Z,18.81
2022-09-28T12:23:49.978Z,18.44
2022-09-28T12:26:30.503Z,18.36
2022-09-28T12:29:04.041Z,18.05
2022-09-28T12:31:38.515Z,17.70
2022-09-28T12:34:10.962Z,17.99
2022-09-28T12:36:50.899Z,18.00
2022-09-28T12:39:57.403Z,17.65
2022-09-28T12:42:44.365Z,17.32
2022-09-28T12:45:43.010Z,17.55
2022-09-28T12:48:36.331Z,17.47
2022-09-28T12:51:17.693Z,17.47
2022-09-28T12:54:05.913Z,17.66
2022-09-28T12:56:42.384Z,17.47
2022-09-28T12:59:23.643Z,17.23
2022-09-28T13:02:30.195Z,17.11
2022-09-28T13:05:14.338Z,17.09
2022-09-28T13:07:50.957Z,16.88
2022-09-28T13:10:32.583Z,16.76
2022-09-28T13:13:34.651Z,16.68
2022-09-28T13:16:11.388Z,16.71
2022-09-28T13:18:45.497Z,16.69
2022-09-28T13:21:26.438Z,16.68
2022-09-28T13:24:09.002Z,16.85
2022-09-28T13:26:49.069Z,16.93
2022-09-28T13:29:20.208Z,17.30
2022-09-28T13:31:52.854Z,17.31
2022-09-28T13:34:22.360Z,17.44
2022-09-28T13:37:20.101Z,17.47
2022-09-28T13:39:52.299Z,17.47
2022-09-28T13:42:51.256Z,17.43
2022-09-28T13:45:32.744Z,17.51
2022-09-28T13:48:14.390Z,17.60
2022-09-28T13:51:09.164Z,17.50
2022-09-28T13:53:53.199Z,17.31
2022-09-28T13:56:31.526Z,17.23
2022-09-28T13:59:05.427Z,17.23
2022-09-28T14:01:39.920Z,17.01
2022-09-28T14:04:19.786Z,16.91
2022-09-28T14:06:55.499Z,17.05
2022-09-28T14:09:46.885Z,16.88
2022-09-28T14:12:46.537Z,16.82
2022-09-28T14:15:44.949Z,16.67
2022-09-28T14:18:27.994Z,16.64
2022-09-28T14:21:20.277Z,16.53
2022-09-28T14:24:01.821Z,16.55
2022-09-28T14:27:02.294Z,16.48
2022-09-28T14:29:31.907Z,16.50
2022-09-28T14:32:05.458Z,16.58
2022-09-28T14:34:36.563Z,16.68
2022-09-28T14:37:37.536Z,16.73
2022-09-28T14:40:34.547Z,16.67
2022-09-28T14:43:27.458Z,16.59
2022-09-28T14:46:38.150Z,16.67
2022-09-28T14:49:23.489Z,16.61
2022-09-28T14:52:11.526Z,16.53
2022-09-28T14:54:45.452Z,16.41
2022-09-28T14:57:23.192Z,16.34
2022-09-28T14:59:51.323Z,16.25
2022-09-28T15:02:26.289Z,16.09
2022-09-28T15:05:00.127Z,16.01
2022-09-28T15:07:34.392Z,15.92
2022-09-28T15:10:03.693Z,15.87
2022-09-28T15:12:32.740Z,15.78
2022-09-28T15:15:03.468Z,15.75
2022-09-28T15:17:39.160Z,15.71
2022-09-28T15:20:23.350Z,15.70
2022-09-28T15:22:57.105Z,15.71
2022-09-28T15:25:26.923Z,15.67
2022-09-28T15:27:56.849Z,15.63
2022-09-28T15:30:28.559Z,15.60
2022-09-28T15:33:18.347Z,15.53
2022-09-28T15:35:49.907Z,15.43
2022-09-28T15:38:19.543Z,15.37
2022-09-28T15:40:48.643Z,15.30
2022-09-28T15:43:29.081Z,15.30
2022-09-28T15:46:02.710Z,15.26
2022-09-28T15:48:32.794Z,15.24
2022-09-28T15:51:10.348Z,15.21
2022-09-28T15:53:43.722Z,15.16
2022-09-28T15:56:12.128Z,15.10
2022-09-28T15:58:41.195Z,15.09
2022-09-28T16:01:36.418Z,14.95
2022-09-28T16:04:40.066Z,14.83
2022-09-28T16:07:39.645Z,14.76
2022-09-28T16:10:35.184Z,14.71
2022-09-28T16:13:18.729Z,14.66
2022-09-28T16:15:46.859Z,14.60
2022-09-28T16:18:22.211Z,14.53
2022-09-28T16:20:52.550Z,14.49
2022-09-28T16:23:27.336Z,14.43
2022-09-28T16:26:00.335Z,14.38
2022-09-28T16:28:51.839Z,14.35
2022-09-28T16:31:34.538Z,14.30
2022-09-28T16:34:11.724Z,14.28
2022-09-28T16:36:45.605Z,14.24
2022-09-28T16:39:14.277Z,14.24
2022-09-28T16:41:47.415Z,14.23
2022-09-28T16:44:20.913Z,14.21
2022-09-28T16:46:49.132Z,14.16
2022-09-28T16:49:19.492Z,14.17
2022-09-28T16:51:48.740Z,14.14
2022-09-28T16:54:35.901Z,14.11
2022-09-28T16:57:08.250Z,14.16
2022-09-28T16:59:38.535Z,14.15
2022-09-28T17:02:35.456Z,14.18
2022-09-28T17:05:08.726Z,14.22
2022-09-28T17:07:37.101Z,14.21
2022-09-28T17:10:16.624Z,14.19
2022-09-28T17:12:46.311Z,14.20
2022-09-28T17:15:15.782Z,14.19
2022-09-28T17:17:43.828Z,14.20
2022-09-28T17:20:20.471Z,14.16
2022-09-28T17:22:48.517Z,14.17
2022-09-28T17:25:16.791Z,14.08
2022-09-28T17:27:48.122Z,14.01
2022-09-28T17:30:17.344Z,13.95
2022-09-28T17:32:47.294Z,13.90
2022-09-28T17:35:25.747Z,13.86
2022-09-28T17:37:54.074Z,13.82
2022-09-28T17:40:24.106Z,13.70
2022-09-28T17:42:55.221Z,13.70
2022-09-28T17:45:24.351Z,13.64
2022-09-28T17:47:52.384Z,13.51
2022-09-28T17:50:24.392Z,13.51
2022-09-28T17:52:53.444Z,13.40
2022-09-28T17:55:23.298Z,13.44
2022-09-28T17:57:51.828Z,13.39
2022-09-28T18:00:21.439Z,13.37
2022-09-28T18:02:49.500Z,13.28
2022-09-28T18:05:19.703Z,13.11
2022-09-28T18:07:48.123Z,12.91
2022-09-28T18:10:18.255Z,12.88
2022-09-28T18:12:46.559Z,12.79
2022-09-28T18:15:14.731Z,12.64
2022-09-28T18:17:44.337Z,12.54
2022-09-28T18:20:14.385Z,12.55
2022-09-28T18:22:42.767Z,12.56
2022-09-28T18:25:11.294Z,12.54
2022-09-28T18:27:39.422Z,12.56
2022-09-28T18:30:08.843Z,12.58
2022-09-28T18:32:38.058Z,12.51
2022-09-28T18:35:10.342Z,12.45
2022-09-28T18:37:40.063Z,12.40
2022-09-28T18:40:09.843Z,12.37
2022-09-28T18:42:38.232Z,12.20
2022-09-28T18:45:10.796Z,12.18
2022-09-28T18:47:39.165Z,12.18
2022-09-28T18:50:12.012Z,12.19
2022-09-28T18:52:41.047Z,12.23
2022-09-28T18:55:10.631Z,12.25
2022-09-28T18:57:40.790Z,12.13
2022-09-28T19:00:11.156Z,12.07
2022-09-28T19:02:39.718Z,12.03
2022-09-28T19:05:09.905Z,11.94
2022-09-28T19:07:37.940Z,11.93
2022-09-28T19:10:06.875Z,11.90
2022-09-28T19:12:34.867Z,11.87
2022-09-28T19:15:02.894Z,11.86
2022-09-28T19:17:31.013Z,11.84
2022-09-28T19:19:59.161Z,11.82
2022-09-28T19:22:28.968Z,11.87
2022-09-28T19:24:57.111Z,11.81
2022-09-28T19:27:25.104Z,11.82
2022-09-28T19:29:53.097Z,11.79
2022-09-28T19:32:21.092Z,11.85
2022-09-28T19:34:49.081Z,11.82
2022-09-28T19:37:17.146Z,11.78
2022-09-28T19:39:46.688Z,11.76
2022-09-28T19:42:14.705Z,11.83
2022-09-28T19:44:43.883Z,11.83
2022-09-28T19:47:13.631Z,11.85
2022-09-28T19:49:41.995Z,11.75
2022-09-28T19:52:16.616Z,11.76
2022-09-28T19:54:57.029Z,11.83
2022-09-28T19:57:26.286Z,11.86
2022-09-28T19:59:59.224Z,11.87
2022-09-28T20:02:30.140Z,11.85
2022-09-28T20:04:58.282Z,11.79
2022-09-28T20:07:26.386Z,11.69
2022-09-28T20:09:55.930Z,11.61
2022-09-28T20:12:23.953Z,11.59
2022-09-28T20:14:51.899Z,11.50
2022-09-28T20:17:21.876Z,11.52
2022-09-28T20:19:51.845Z,11.54
2022-09-28T20:22:20.479Z,11.61
2022-09-28T20:24:48.539Z,11.67
2022-09-28T20:27:18.137Z,11.71
2022-09-28T20:29:46.120Z,11.70
2022-09-28T20:32:14.345Z,11.71
2022-09-28T20:34:42.510Z,11.71
2022-09-28T20:37:12.566Z,11.74
2022-09-28T20:39:44.788Z,11.75
2022-09-28T20:42:15.209Z,11.69
2022-09-28T20:44:44.725Z,11.71
2022-09-28T20:47:12.689Z,11.78
2022-09-28T20:49:40.667Z,11.81
2022-09-28T20:52:08.672Z,11.85
2022-09-28T20:54:38.038Z,11.85
2022-09-28T20:57:17.415Z,11.83
2022-09-28T20:59:49.765Z,11.77
2022-09-28T21:02:21.890Z,11.72
2022-09-28T21:04:49.894Z,11.72
2022-09-28T21:07:17.925Z,11.74
2022-09-28T21:09:46.031Z,11.77
2022-09-28T21:12:15.334Z,11.77
2022-09-28T21:14:43.319Z,11.81
2022-09-28T21:17:12.912Z,11.83
2022-09-28T21:19:40.934Z,11.78
2022-09-28T21:22:08.964Z,11.82
2022-09-28T21:24:37.087Z,11.77
2022-09-28T21:27:05.385Z,11.70
2022-09-28T21:29:33.399Z,11.64
2022-09-28T21:32:01.491Z,11.64
2022-09-28T21:34:30.889Z,11.61
2022-09-28T21:36:58.892Z,11.58
2022-09-28T21:39:26.858Z,11.54
2022-09-28T21:41:54.851Z,11.48
2022-09-28T21:44:22.879Z,11.43
2022-09-28T21:46:51.000Z,11.40
2022-09-28T21:49:19.647Z,11.40
2022-09-28T21:51:48.999Z,11.42
2022-09-28T21:54:17.128Z,11.44
2022-09-28T21:56:45.257Z,11.43
2022-09-28T21:59:13.233Z,11.43
2022-09-28T22:01:42.806Z,11.42
2022-09-28T22:04:11.793Z,11.40
2022-09-28T22:06:39.917Z,11.39
2022-09-28T22:09:09.434Z,11.36
2022-09-28T22:11:38.274Z,11.37
2022-09-28T22:14:06.316Z,11.40
2022-09-28T22:16:34.361Z,11.38
2022-09-28T22:19:02.336Z,11.42
2022-09-28T22:21:32.039Z,11.44
2022-09-28T22:24:02.120Z,11.44
2022-09-28T22:26:32.883Z,11.47
2022-09-28T22:29:02.392Z,11.49
2022-09-28T22:31:32.259Z,11.51
2022-09-28T22:34:00.741Z,11.53
2022-09-28T22:36:29.097Z,11.52
2022-09-28T22:38:58.335Z,11.52
2022-09-28T22:41:27.102Z,11.53
2022-09-28T22:43:56.472Z,11.57
2022-09-28T22:46:26.467Z,11.57
2022-09-28T22:48:56.420Z,11.56
2022-09-28T22:51:26.842Z,11.51
2022-09-28T22:53:56.202Z,11.52
2022-09-28T22:56:24.469Z,11.54
2022-09-28T22:58:52.659Z,11.53
2022-09-28T23:01:23.687Z,11.56
2022-09-28T23:03:53.382Z,11.53
2022-09-28T23:06:23.361Z,11.50
2022-09-28T23:08:52.038Z,11.52
2022-09-28T23:11:20.547Z,11.52
2022-09-28T23:13:50.247Z,11.53
2022-09-28T23:16:18.961Z,11.50
2022-09-28T23:18:49.370Z,11.49
2022-09-28T23:21:19.355Z,11.49
2022-09-28T23:23:52.425Z,11.48
2022-09-28T23:26:22.977Z,11.54
2022-09-28T23:28:51.189Z,11.58
2022-09-28T23:31:21.633Z,11.60
2022-09-28T23:33:51.816Z,11.62
2022-09-28T23:36:19.877Z,11.64
2022-09-28T23:38:47.848Z,11.67
2022-09-28T23:41:15.829Z,11.72
2022-09-28T23:43:43.816Z,11.70
2022-09-28T23:46:12.021Z,11.69
2022-09-28T23:48:40.061Z,11.69
2022-09-28T23:51:09.465Z,11.70
2022-09-28T23:53:37.439Z,11.69
2022-09-28T23:56:05.617Z,11.74
2022-09-28T23:58:33.625Z,11.71
